Time;durP1;ratioP1;P1;durP2;ratioP2;P2;SDS_P1;SDS_P2;PMS_P1;PMS_P2;Temp;Humidity;BMP_temperature;BMP_pressure;BME280_temperature;BME280_humidity;BME280_pressure;Samples;Min_cycle;Max_cycle;Signal;HPM_P1;HPM_P2
2023/09/27 00:02:05;;;;;;;;;;;17.70;99.90;;;;;;5012122;28;19917;-65
2023/09/27 00:04:31;;;;;;;;;;;17.70;99.90;;;;;;5012482;28;19913;-66
2023/09/27 00:06:57;;;;;;;;;;;17.70;99.90;;;;;;5011803;28;19917;-65
2023/09/27 00:09:23;;;;;;;;;;;17.70;99.90;;;;;;4996991;28;19963;-64
2023/09/27 00:11:48;;;;;;;;;;;17.60;99.90;;;;;;4999821;28;19945;-65
2023/09/27 00:14:14;;;;;;;;;;;17.60;99.90;;;;;;5004105;28;19924;-64
2023/09/27 00:16:39;;;;;;;;;;;17.60;99.90;;;;;;4998989;28;19917;-65
2023/09/27 00:19:05;;;;;;;;;;;17.60;99.90;;;;;;5015249;28;19939;-65
2023/09/27 00:21:31;;;;;;;;;;;17.60;99.90;;;;;;5013227;28;20631;-66
2023/09/27 00:23:56;;;;;;;;;;;17.60;99.90;;;;;;5015275;28;19913;-65
2023/09/27 00:26:22;;;;;;;;;;;17.60;99.90;;;;;;5012178;28;20736;-64
2023/09/27 00:28:47;;;;;;;;;;;17.60;99.90;;;;;;5015278;28;19920;-65
2023/09/27 00:31:14;;;;;;;;;;;17.60;99.90;;;;;;5015351;28;19972;-65
2023/09/27 00:33:39;;;;;;;;;;;17.60;99.90;;;;;;5012044;28;19921;-65
2023/09/27 00:36:05;;;;;;;;;;;17.60;99.90;;;;;;5016310;28;20196;-65
2023/09/27 00:38:31;;;;;;;;;;;17.60;99.90;;;;;;5018971;28;19924;-65
2023/09/27 00:40:57;;;;;;;;;;;17.50;99.90;;;;;;5016491;28;19951;-65
2023/09/27 00:43:30;;;;;;;;;;;17.50;99.90;;;;;;5005289;28;20016;-66
2023/09/27 00:46:04;;;;;;;;;;;17.50;99.90;;;;;;5016947;28;20423;-64
2023/09/27 00:48:31;;;;;;;;;;;17.50;99.90;;;;;;5009064;28;20277;-66
2023/09/27 00:50:57;;;;;;;;;;;17.50;99.90;;;;;;5018630;28;19920;-64
2023/09/27 00:53:23;;;;;;;;;;;17.40;99.90;;;;;;5011209;28;19913;-65
2023/09/27 00:55:49;;;;;;;;;;;17.40;99.90;;;;;;5017169;28;20275;-66
2023/09/27 00:58:17;;;;;;;;;;;17.40;99.90;;;;;;5007948;28;20155;-65
2023/09/27 01:00:43;;;;;;;;;;;17.40;99.90;;;;;;5016318;28;20012;-64
2023/09/27 01:03:08;;;;;;;;;;;17.30;99.90;;;;;;5016250;28;20039;-65
2023/09/27 01:05:34;;;;;;;;;;;17.30;99.90;;;;;;5010834;28;19913;-66
2023/09/27 01:08:00;;;;;;;;;;;17.30;99.90;;;;;;5017042;28;20667;-64
2023/09/27 01:10:25;;;;;;;;;;;17.30;99.90;;;;;;5014369;28;20060;-65
2023/09/27 01:12:52;;;;;;;;;;;17.30;99.90;;;;;;5002957;28;20742;-66
2023/09/27 01:15:17;;;;;;;;;;;17.30;99.90;;;;;;5006508;28;19967;-65
2023/09/27 01:17:53;;;;;;;;;;;17.30;99.90;;;;;;4999490;28;21366;-64
2023/09/27 01:20:18;;;;;;;;;;;17.30;99.90;;;;;;5015706;28;19909;-65
2023/09/27 01:22:49;;;;;;;;;;;17.30;99.90;;;;;;5013886;28;19917;-65
2023/09/27 01:25:17;;;;;;;;;;;17.20;99.90;;;;;;5016603;28;20610;-65
2023/09/27 01:27:42;;;;;;;;;;;17.20;99.90;;;;;;5016468;28;19917;-65
2023/09/27 01:30:09;;;;;;;;;;;17.20;99.90;;;;;;5003084;28;20014;-66
2023/09/27 01:32:35;;;;;;;;;;;17.20;99.90;;;;;;5015522;28;19912;-65
2023/09/27 01:35:02;;;;;;;;;;;17.10;99.90;;;;;;4992908;28;20549;-64
2023/09/27 01:37:28;;;;;;;;;;;17.00;99.90;;;;;;5015952;28;19913;-64
2023/09/27 01:39:54;;;;;;;;;;;16.90;99.90;;;;;;5015766;28;19928;-65
2023/09/27 01:42:20;;;;;;;;;;;16.80;99.90;;;;;;5002971;28;20407;-66
2023/09/27 01:44:46;;;;;;;;;;;16.80;99.90;;;;;;5015357;28;19917;-65
2023/09/27 01:47:11;;;;;;;;;;;16.80;99.90;;;;;;5001906;28;20925;-65
2023/09/27 01:49:37;;;;;;;;;;;16.70;99.90;;;;;;5014250;28;20302;-65
2023/09/27 01:52:02;;;;;;;;;;;16.70;99.90;;;;;;5015747;28;20388;-65
2023/09/27 01:54:28;;;;;;;;;;;16.70;99.90;;;;;;5014668;28;19917;-65
2023/09/27 01:56:53;;;;;;;;;;;16.70;99.90;;;;;;4995089;28;19923;-65
2023/09/27 01:59:19;;;;;;;;;;;16.70;99.90;;;;;;5014200;28;19909;-65
2023/09/27 02:01:44;;;;;;;;;;;16.70;99.90;;;;;;5012326;28;19943;-64
2023/09/27 02:04:10;;;;;;;;;;;16.70;99.90;;;;;;5005134;28;20874;-64
2023/09/27 02:06:35;;;;;;;;;;;16.70;99.90;;;;;;5018154;28;19925;-65
2023/09/27 02:09:01;;;;;;;;;;;16.70;99.90;;;;;;5013720;28;19920;-66
2023/09/27 02:11:26;;;;;;;;;;;16.70;99.90;;;;;;5015349;28;20269;-64
2023/09/27 02:13:52;;;;;;;;;;;16.70;99.90;;;;;;4994717;28;19913;-66
2023/09/27 02:16:18;;;;;;;;;;;16.70;99.90;;;;;;5016532;28;20233;-65
2023/09/27 02:18:44;;;;;;;;;;;16.70;99.90;;;;;;5016987;28;19975;-65
2023/09/27 02:21:10;;;;;;;;;;;16.70;99.90;;;;;;4999067;28;19952;-65
2023/09/27 02:23:35;;;;;;;;;;;16.60;99.90;;;;;;5010144;28;19968;-65
2023/09/27 02:26:02;;;;;;;;;;;16.60;99.90;;;;;;4993518;28;19921;-64
2023/09/27 02:28:27;;;;;;;;;;;16.60;99.90;;;;;;5010273;28;19914;-65
2023/09/27 02:30:53;;;;;;;;;;;16.60;99.90;;;;;;4992862;28;20458;-66
2023/09/27 02:33:20;;;;;;;;;;;16.60;99.90;;;;;;5001153;28;20536;-66
2023/09/27 02:35:46;;;;;;;;;;;16.50;99.90;;;;;;5009600;28;19913;-65
2023/09/27 02:38:11;;;;;;;;;;;16.50;99.90;;;;;;5014291;28;19964;-65
2023/09/27 02:40:37;;;;;;;;;;;16.40;99.90;;;;;;5009557;28;20111;-65
2023/09/27 02:43:03;;;;;;;;;;;16.40;99.90;;;;;;5009380;28;19924;-65
2023/09/27 02:45:28;;;;;;;;;;;16.40;99.90;;;;;;5014087;28;19913;-65
2023/09/27 02:47:54;;;;;;;;;;;16.40;99.90;;;;;;5014648;28;19974;-65
2023/09/27 02:50:20;;;;;;;;;;;16.30;99.90;;;;;;5016371;28;19920;-65
2023/09/27 02:52:45;;;;;;;;;;;16.30;99.90;;;;;;5013453;28;20110;-65
2023/09/27 02:55:11;;;;;;;;;;;16.30;99.90;;;;;;5003442;28;19982;-65
2023/09/27 02:57:37;;;;;;;;;;;16.30;99.90;;;;;;4998682;28;20377;-64
2023/09/27 03:00:06;;;;;;;;;;;16.30;99.90;;;;;;5007686;28;19913;-65
2023/09/27 03:02:33;;;;;;;;;;;16.30;99.90;;;;;;5013661;28;20539;-64
2023/09/27 03:04:58;;;;;;;;;;;16.30;99.90;;;;;;5010454;28;19967;-65
2023/09/27 03:07:24;;;;;;;;;;;16.40;99.90;;;;;;5014497;28;19944;-65
2023/09/27 03:09:50;;;;;;;;;;;16.40;99.90;;;;;;5008083;28;19964;-64
2023/09/27 03:12:15;;;;;;;;;;;16.30;99.90;;;;;;5000556;28;19917;-64
2023/09/27 03:14:41;;;;;;;;;;;16.30;99.90;;;;;;5014807;28;19913;-65
2023/09/27 03:17:07;;;;;;;;;;;16.30;99.90;;;;;;5010696;28;19923;-65
2023/09/27 03:19:33;;;;;;;;;;;16.30;99.90;;;;;;5013562;28;19909;-64
2023/09/27 03:21:58;;;;;;;;;;;16.30;99.90;;;;;;5006675;28;19935;-65
2023/09/27 03:24:26;;;;;;;;;;;16.30;99.90;;;;;;4996197;28;19982;-65
2023/09/27 03:26:52;;;;;;;;;;;16.30;99.90;;;;;;5016230;28;19913;-64
2023/09/27 03:29:17;;;;;;;;;;;16.30;99.90;;;;;;5006496;28;19975;-66
2023/09/27 03:31:43;;;;;;;;;;;16.30;99.90;;;;;;4992825;28;19968;-64
2023/09/27 03:34:09;;;;;;;;;;;16.20;99.90;;;;;;5013422;28;20024;-64
2023/09/27 03:36:34;;;;;;;;;;;16.20;99.90;;;;;;4991700;28;20007;-66
2023/09/27 03:39:00;;;;;;;;;;;16.20;99.90;;;;;;5013136;28;19917;-65
2023/09/27 03:41:25;;;;;;;;;;;16.20;99.90;;;;;;5013131;28;19917;-65
2023/09/27 03:43:51;;;;;;;;;;;16.20;99.90;;;;;;5010781;28;19971;-64
2023/09/27 03:46:17;;;;;;;;;;;16.10;99.90;;;;;;5001647;28;19924;-66
2023/09/27 03:48:42;;;;;;;;;;;16.10;99.90;;;;;;5013604;28;19917;-65
2023/09/27 03:51:08;;;;;;;;;;;16.10;99.90;;;;;;5013282;28;19917;-65
2023/09/27 03:53:33;;;;;;;;;;;16.10;99.90;;;;;;5013839;28;19937;-65
2023/09/27 03:55:59;;;;;;;;;;;16.10;99.90;;;;;;5008096;28;20003;-65
2023/09/27 03:58:24;;;;;;;;;;;16.10;99.90;;;;;;5014205;28;20403;-64
2023/09/27 04:00:50;;;;;;;;;;;16.10;99.90;;;;;;5001896;28;19936;-65
2023/09/27 04:03:20;;;;;;;;;;;16.10;99.90;;;;;;5005887;28;19937;-64
2023/09/27 04:05:45;;;;;;;;;;;16.10;99.90;;;;;;5010846;28;20375;-64
2023/09/27 04:08:11;;;;;;;;;;;16.00;99.90;;;;;;5015706;28;19913;-65
2023/09/27 04:10:36;;;;;;;;;;;16.00;99.90;;;;;;5007335;28;19925;-66
2023/09/27 04:13:04;;;;;;;;;;;16.00;99.90;;;;;;5007046;28;20009;-66
2023/09/27 04:15:29;;;;;;;;;;;15.90;99.90;;;;;;5010937;28;19936;-64
2023/09/27 04:17:55;;;;;;;;;;;15.90;99.90;;;;;;5013654;28;19913;-65
2023/09/27 04:20:21;;;;;;;;;;;15.80;99.90;;;;;;5005769;28;19913;-65
2023/09/27 04:22:48;;;;;;;;;;;15.80;99.90;;;;;;5012866;28;19918;-65
2023/09/27 04:25:14;;;;;;;;;;;15.80;99.90;;;;;;5008097;28;19972;-64
2023/09/27 04:27:44;;;;;;;;;;;15.70;99.90;;;;;;5013490;28;19910;-64
2023/09/27 04:30:14;;;;;;;;;;;15.80;99.90;;;;;;4992354;28;19925;-64
2023/09/27 04:32:40;;;;;;;;;;;15.70;99.90;;;;;;5014575;28;19909;-66
2023/09/27 04:35:08;;;;;;;;;;;15.70;99.90;;;;;;5005683;28;19929;-65
2023/09/27 04:37:34;;;;;;;;;;;15.70;99.90;;;;;;5016757;28;19913;-66
2023/09/27 04:40:00;;;;;;;;;;;15.70;99.90;;;;;;5013768;28;20548;-65
2023/09/27 04:42:25;;;;;;;;;;;15.70;99.90;;;;;;5014407;28;19913;-70
2023/09/27 04:44:51;;;;;;;;;;;15.70;99.90;;;;;;5012202;28;19921;-70
2023/09/27 04:47:17;;;;;;;;;;;15.80;99.90;;;;;;5016561;28;19913;-71
2023/09/27 04:49:43;;;;;;;;;;;15.80;99.90;;;;;;5000826;28;19917;-71
2023/09/27 04:52:08;;;;;;;;;;;15.80;99.90;;;;;;5011074;28;20628;-70
2023/09/27 04:54:34;;;;;;;;;;;15.80;99.90;;;;;;5016257;28;20445;-72
2023/09/27 04:56:59;;;;;;;;;;;15.80;99.90;;;;;;5019132;28;20368;-70
2023/09/27 04:59:25;;;;;;;;;;;15.80;99.90;;;;;;5015367;28;20011;-70
2023/09/27 05:01:51;;;;;;;;;;;15.80;99.90;;;;;;5012317;28;20317;-69
2023/09/27 05:04:17;;;;;;;;;;;15.90;99.90;;;;;;5017398;28;19936;-68
2023/09/27 05:06:43;;;;;;;;;;;15.90;99.90;;;;;;5011650;28;19917;-68
2023/09/27 05:09:11;;;;;;;;;;;16.00;99.90;;;;;;5005700;28;19913;-68
2023/09/27 05:11:37;;;;;;;;;;;16.20;99.90;;;;;;5016053;28;19921;-69
2023/09/27 05:14:03;;;;;;;;;;;16.40;99.90;;;;;;5008606;28;19920;-69
2023/09/27 05:16:34;;;;;;;;;;;16.60;99.90;;;;;;5017233;28;20000;-70
2023/09/27 05:19:00;;;;;;;;;;;17.00;99.90;;;;;;5015987;28;20292;-70
2023/09/27 05:21:25;;;;;;;;;;;17.30;99.90;;;;;;5015868;28;19913;-70
2023/09/27 05:23:51;;;;;;;;;;;17.50;99.90;;;;;;4993617;28;19927;-70
2023/09/27 05:26:16;;;;;;;;;;;17.50;99.90;;;;;;5016397;28;19940;-70
2023/09/27 05:28:42;;;;;;;;;;;17.40;99.90;;;;;;4997929;28;19968;-69
2023/09/27 05:31:07;;;;;;;;;;;17.60;99.90;;;;;;5013388;28;19921;-69
2023/09/27 05:33:33;;;;;;;;;;;18.10;99.90;;;;;;5017645;28;19913;-69
2023/09/27 05:35:58;;;;;;;;;;;18.60;99.90;;;;;;5017800;28;20390;-69
2023/09/27 05:38:24;;;;;;;;;;;18.80;99.90;;;;;;5019287;28;19921;-69
2023/09/27 05:40:50;;;;;;;;;;;18.80;99.90;;;;;;5005571;28;20023;-72
2023/09/27 05:43:15;;;;;;;;;;;19.20;99.90;;;;;;5011688;28;19964;-72
2023/09/27 05:45:41;;;;;;;;;;;19.50;99.90;;;;;;5017402;28;19919;-72
2023/09/27 05:48:07;;;;;;;;;;;19.30;99.90;;;;;;5015287;28;19921;-72
2023/09/27 05:50:34;;;;;;;;;;;19.00;99.90;;;;;;5020630;28;20539;-72
2023/09/27 05:53:00;;;;;;;;;;;18.70;99.90;;;;;;5014962;28;20346;-72
2023/09/27 05:55:26;;;;;;;;;;;18.80;99.90;;;;;;5016478;28;20544;-70
2023/09/27 05:57:53;;;;;;;;;;;19.10;99.90;;;;;;5005477;28;19921;-71
2023/09/27 06:00:26;;;;;;;;;;;19.60;99.90;;;;;;5013172;28;19917;-71
2023/09/27 06:02:51;;;;;;;;;;;20.00;99.90;;;;;;5011247;28;20428;-71
2023/09/27 06:05:17;;;;;;;;;;;20.20;99.90;;;;;;5012232;28;19960;-71
2023/09/27 06:07:43;;;;;;;;;;;20.30;99.90;;;;;;5016383;28;20066;-71
2023/09/27 06:10:08;;;;;;;;;;;20.40;99.90;;;;;;5009247;28;19925;-70
2023/09/27 06:12:34;;;;;;;;;;;20.70;99.90;;;;;;5008615;28;19999;-71
2023/09/27 06:15:00;;;;;;;;;;;21.40;99.90;;;;;;5013646;28;20405;-71
2023/09/27 06:17:25;;;;;;;;;;;21.70;99.90;;;;;;5018454;28;20424;-71
2023/09/27 06:19:51;;;;;;;;;;;21.30;99.90;;;;;;5016425;28;20015;-71
2023/09/27 06:22:16;;;;;;;;;;;21.40;99.90;;;;;;5014588;28;19913;-71
2023/09/27 06:24:42;;;;;;;;;;;21.60;99.90;;;;;;5016568;28;19909;-71
2023/09/27 06:27:08;;;;;;;;;;;21.70;99.90;;;;;;5017708;28;20977;-70
2023/09/27 06:29:34;;;;;;;;;;;22.30;99.90;;;;;;5007151;28;19921;-71
2023/09/27 06:31:59;;;;;;;;;;;23.10;99.90;;;;;;5001095;28;19917;-71
2023/09/27 06:34:26;;;;;;;;;;;23.50;99.90;;;;;;5016342;28;20007;-71
2023/09/27 06:36:54;;;;;;;;;;;23.80;99.90;;;;;;5015645;28;20008;-71
2023/09/27 06:39:23;;;;;;;;;;;23.70;99.90;;;;;;5015308;28;20020;-72
2023/09/27 06:41:49;;;;;;;;;;;23.90;99.90;;;;;;5010913;28;20360;-72
2023/09/27 06:44:15;;;;;;;;;;;24.30;99.90;;;;;;5010729;28;20000;-72
2023/09/27 06:46:41;;;;;;;;;;;24.30;99.90;;;;;;4999285;28;20011;-71
2023/09/27 06:49:07;;;;;;;;;;;24.40;99.90;;;;;;5015412;28;20526;-71
2023/09/27 06:51:33;;;;;;;;;;;22.90;99.90;;;;;;5015192;28;19917;-72
2023/09/27 06:53:59;;;;;;;;;;;22.40;99.90;;;;;;5014778;28;19924;-72
2023/09/27 06:56:25;;;;;;;;;;;23.00;99.90;;;;;;5016017;28;19917;-72
2023/09/27 06:58:51;;;;;;;;;;;23.40;99.90;;;;;;5014175;28;20439;-71
2023/09/27 07:01:18;;;;;;;;;;;24.30;99.90;;;;;;4998012;28;20348;-71
2023/09/27 07:03:43;;;;;;;;;;;24.90;99.90;;;;;;5005391;28;19970;-71
2023/09/27 07:06:09;;;;;;;;;;;24.10;99.90;;;;;;5015609;28;19996;-72
2023/09/27 07:08:34;;;;;;;;;;;23.80;99.90;;;;;;5008042;28;19925;-71
2023/09/27 07:11:04;;;;;;;;;;;23.60;99.90;;;;;;5012703;28;20007;-71
2023/09/27 07:13:30;;;;;;;;;;;24.10;99.90;;;;;;4990083;28;19976;-72
2023/09/27 07:15:56;;;;;;;;;;;25.00;99.90;;;;;;5009333;28;20380;-71
2023/09/27 07:18:22;;;;;;;;;;;26.50;99.90;;;;;;5008803;28;20380;-68
2023/09/27 07:20:50;;;;;;;;;;;28.40;99.00;;;;;;5003539;28;19917;-67
2023/09/27 07:23:15;;;;;;;;;;;29.50;95.70;;;;;;5014183;28;19917;-67
2023/09/27 07:25:44;;;;;;;;;;;29.60;94.60;;;;;;4942206;28;19921;-68
2023/09/27 07:28:11;;;;;;;;;;;29.60;94.40;;;;;;4967256;28;20292;-67
2023/09/27 07:30:37;;;;;;;;;;;29.30;93.80;;;;;;5008011;28;19921;-68
2023/09/27 07:33:06;;;;;;;;;;;29.50;93.80;;;;;;5013696;28;20356;-68
2023/09/27 07:35:34;;;;;;;;;;;29.40;93.20;;;;;;5013455;28;20598;-68
2023/09/27 07:38:00;;;;;;;;;;;28.70;93.40;;;;;;5013907;28;19921;-68
2023/09/27 07:40:27;;;;;;;;;;;29.40;92.80;;;;;;5012206;28;19996;-67
2023/09/27 07:42:52;;;;;;;;;;;30.50;91.70;;;;;;5001425;28;20377;-68
2023/09/27 07:45:21;;;;;;;;;;;29.60;91.60;;;;;;4994402;28;19933;-67
2023/09/27 07:47:55;;;;;;;;;;;29.50;91.80;;;;;;5014466;28;19990;-67
2023/09/27 07:50:22;;;;;;;;;;;30.30;91.30;;;;;;5015690;28;20394;-67
2023/09/27 07:52:48;;;;;;;;;;;30.10;91.10;;;;;;5011419;28;19913;-68
2023/09/27 07:55:14;;;;;;;;;;;31.00;90.10;;;;;;5013633;28;19913;-67
2023/09/27 07:57:43;;;;;;;;;;;29.20;91.00;;;;;;5009136;28;19997;-68
2023/09/27 08:00:10;;;;;;;;;;;30.10;90.30;;;;;;5012384;28;20022;-68
2023/09/27 08:02:36;;;;;;;;;;;31.30;88.00;;;;;;4997778;28;19917;-69
2023/09/27 08:05:09;;;;;;;;;;;31.00;88.20;;;;;;5013120;28;20531;-69
2023/09/27 08:07:38;;;;;;;;;;;31.20;87.20;;;;;;4999308;28;20167;-69
2023/09/27 08:10:05;;;;;;;;;;;30.60;86.40;;;;;;5011156;28;19917;-69
2023/09/27 08:12:31;;;;;;;;;;;30.60;86.90;;;;;;4994373;28;19924;-69
2023/09/27 08:14:58;;;;;;;;;;;30.30;86.90;;;;;;5010873;28;19913;-69
2023/09/27 08:17:23;;;;;;;;;;;30.20;86.60;;;;;;5011034;28;19917;-69
2023/09/27 08:19:49;;;;;;;;;;;29.20;87.00;;;;;;5007119;28;20369;-69
2023/09/27 08:22:14;;;;;;;;;;;27.80;90.60;;;;;;5013214;28;19925;-69
2023/09/27 08:24:40;;;;;;;;;;;28.00;90.20;;;;;;5017699;28;20040;-68
2023/09/27 08:27:06;;;;;;;;;;;27.70;90.70;;;;;;5006354;28;19913;-69
2023/09/27 08:29:31;;;;;;;;;;;28.00;89.80;;;;;;5018632;28;20395;-68
2023/09/27 08:31:57;;;;;;;;;;;28.40;90.00;;;;;;5000029;28;19963;-68
2023/09/27 08:34:23;;;;;;;;;;;29.80;88.00;;;;;;5006615;28;19945;-68
2023/09/27 08:36:48;;;;;;;;;;;29.70;87.00;;;;;;5012486;28;21264;-69
2023/09/27 08:39:14;;;;;;;;;;;29.70;86.90;;;;;;5002999;28;19924;-69
2023/09/27 08:41:40;;;;;;;;;;;29.30;86.80;;;;;;5015580;28;20466;-69
2023/09/27 08:44:07;;;;;;;;;;;29.80;86.30;;;;;;5014879;28;19921;-69
2023/09/27 08:46:34;;;;;;;;;;;30.00;85.50;;;;;;5016710;28;19909;-69
2023/09/27 08:49:01;;;;;;;;;;;30.50;83.80;;;;;;5010942;28;19928;-69
2023/09/27 08:51:28;;;;;;;;;;;29.80;85.40;;;;;;5017381;28;20359;-68
2023/09/27 08:53:54;;;;;;;;;;;29.70;86.40;;;;;;5008497;28;19909;-68
2023/09/27 08:56:20;;;;;;;;;;;30.60;85.20;;;;;;5018127;28;19924;-68
2023/09/27 08:58:48;;;;;;;;;;;31.50;84.10;;;;;;5017759;28;19913;-68
2023/09/27 09:01:13;;;;;;;;;;;32.70;81.70;;;;;;5017956;28;19916;-68
2023/09/27 09:03:40;;;;;;;;;;;31.80;81.40;;;;;;5013653;28;19912;-69
2023/09/27 09:06:12;;;;;;;;;;;32.10;81.30;;;;;;5015367;28;19924;-68
2023/09/27 09:08:38;;;;;;;;;;;32.50;81.60;;;;;;5011932;28;19963;-67
2023/09/27 09:11:06;;;;;;;;;;;33.80;79.40;;;;;;5017528;28;20506;-68
2023/09/27 09:13:52;;;;;;;;;;;34.60;79.00;;;;;;4998143;28;19909;-68
2023/09/27 09:16:23;;;;;;;;;;;35.50;76.30;;;;;;4998455;28;19916;-68
2023/09/27 09:18:51;;;;;;;;;;;36.10;74.60;;;;;;5008823;28;20459;-69
2023/09/27 09:21:18;;;;;;;;;;;37.00;72.80;;;;;;5014543;28;19909;-67
2023/09/27 09:23:48;;;;;;;;;;;37.30;71.70;;;;;;5000142;28;19916;-66
2023/09/27 09:26:24;;;;;;;;;;;37.50;70.40;;;;;;5014300;28;19998;-68
2023/09/27 09:28:56;;;;;;;;;;;36.80;70.50;;;;;;5015427;28;19913;-69
2023/09/27 09:31:25;;;;;;;;;;;35.70;71.40;;;;;;5015042;28;19936;-69
2023/09/27 09:34:07;;;;;;;;;;;36.80;71.20;;;;;;5015949;28;19909;-68
2023/09/27 09:36:33;;;;;;;;;;;38.20;68.70;;;;;;5013991;28;19917;-68
2023/09/27 09:39:04;;;;;;;;;;;38.10;68.80;;;;;;5015786;28;19909;-68
2023/09/27 09:41:45;;;;;;;;;;;39.20;67.70;;;;;;5008506;28;19913;-68
2023/09/27 09:44:24;;;;;;;;;;;38.90;67.10;;;;;;5010295;28;19936;-68
2023/09/27 09:46:53;;;;;;;;;;;39.60;65.40;;;;;;5015467;28;19921;-66
2023/09/27 09:49:21;;;;;;;;;;;40.10;65.00;;;;;;5012566;28;20430;-66
2023/09/27 09:51:47;;;;;;;;;;;39.20;65.50;;;;;;4996027;28;19917;-66
2023/09/27 09:54:26;;;;;;;;;;;38.80;66.10;;;;;;5011840;28;19917;-65
2023/09/27 09:56:54;;;;;;;;;;;38.40;65.40;;;;;;5018637;28;19914;-68
2023/09/27 09:59:22;;;;;;;;;;;36.50;67.40;;;;;;5009502;28;19940;-67
2023/09/27 10:01:48;;;;;;;;;;;36.10;68.10;;;;;;5015953;28;19913;-68
2023/09/27 10:04:15;;;;;;;;;;;36.30;67.80;;;;;;5008569;28;19945;-68
2023/09/27 10:06:41;;;;;;;;;;;37.00;67.50;;;;;;5018304;28;19924;-68
2023/09/27 10:09:13;;;;;;;;;;;37.80;67.00;;;;;;5014523;28;20320;-68
2023/09/27 10:11:39;;;;;;;;;;;37.20;66.80;;;;;;4995899;28;19921;-68
2023/09/27 10:14:05;;;;;;;;;;;35.80;68.40;;;;;;5013633;28;19917;-68
2023/09/27 10:16:31;;;;;;;;;;;36.10;67.90;;;;;;5006320;28;20518;-71
2023/09/27 10:18:56;;;;;;;;;;;37.30;67.10;;;;;;5015611;28;20000;-71
2023/09/27 10:21:22;;;;;;;;;;;38.70;65.10;;;;;;5010789;28;19909;-70
2023/09/27 10:23:47;;;;;;;;;;;39.00;64.90;;;;;;5014838;28;19916;-70
2023/09/27 10:26:28;;;;;;;;;;;39.40;64.50;;;;;;5015680;28;20435;-70
2023/09/27 10:29:15;;;;;;;;;;;39.80;63.20;;;;;;5009808;28;19941;-71
2023/09/27 10:31:56;;;;;;;;;;;39.30;63.70;;;;;;5012941;28;20015;-69
2023/09/27 10:34:34;;;;;;;;;;;40.50;61.90;;;;;;5016608;28;20548;-67
2023/09/27 10:37:00;;;;;;;;;;;40.40;61.60;;;;;;5012663;28;19917;-68
2023/09/27 10:39:26;;;;;;;;;;;39.90;61.20;;;;;;4999964;28;19960;-70
2023/09/27 10:41:53;;;;;;;;;;;40.00;61.10;;;;;;4997519;28;20423;-70
2023/09/27 10:44:30;;;;;;;;;;;40.30;61.30;;;;;;5008771;28;20398;-69
2023/09/27 10:46:56;;;;;;;;;;;39.00;61.40;;;;;;5014830;28;20502;-68
2023/09/27 10:49:24;;;;;;;;;;;39.00;61.50;;;;;;5014716;28;20051;-68
2023/09/27 10:51:50;;;;;;;;;;;39.10;62.10;;;;;;5014095;28;20002;-68
2023/09/27 10:54:21;;;;;;;;;;;36.80;62.90;;;;;;4997739;28;19909;-70
2023/09/27 10:56:52;;;;;;;;;;;33.80;65.40;;;;;;5016339;28;20356;-70
2023/09/27 10:59:28;;;;;;;;;;;32.00;67.90;;;;;;5009125;28;20356;-70
2023/09/27 11:01:58;;;;;;;;;;;31.00;69.10;;;;;;4997153;28;19932;-70
2023/09/27 11:04:25;;;;;;;;;;;30.40;69.70;;;;;;5012667;28;19913;-70
2023/09/27 11:06:51;;;;;;;;;;;29.60;71.30;;;;;;5012291;28;20043;-70
2023/09/27 11:09:19;;;;;;;;;;;29.30;71.60;;;;;;5015919;28;19910;-69
2023/09/27 11:11:45;;;;;;;;;;;28.90;72.50;;;;;;4992238;28;19928;-70
2023/09/27 11:14:26;;;;;;;;;;;28.20;72.80;;;;;;5013169;28;20297;-70
2023/09/27 11:16:51;;;;;;;;;;;27.80;74.50;;;;;;5009904;28;19909;-70
2023/09/27 11:19:29;;;;;;;;;;;27.80;75.40;;;;;;5015466;28;19916;-69
2023/09/27 11:21:55;;;;;;;;;;;27.80;72.80;;;;;;4998184;28;19959;-68
2023/09/27 11:24:22;;;;;;;;;;;27.70;73.30;;;;;;5013120;28;19956;-69
2023/09/27 11:26:47;;;;;;;;;;;27.50;73.20;;;;;;5012335;28;20020;-69
2023/09/27 11:29:13;;;;;;;;;;;27.50;73.80;;;;;;4995350;28;20043;-69
2023/09/27 11:31:38;;;;;;;;;;;27.60;73.10;;;;;;5010203;28;19995;-69
2023/09/27 11:34:17;;;;;;;;;;;27.30;73.00;;;;;;5017949;28;19917;-69
2023/09/27 11:36:44;;;;;;;;;;;27.50;73.20;;;;;;5015137;28;19917;-69
2023/09/27 11:39:10;;;;;;;;;;;27.60;73.20;;;;;;5009109;28;21315;-68
2023/09/27 11:41:36;;;;;;;;;;;27.60;73.20;;;;;;5012449;28;20387;-69
2023/09/27 11:44:14;;;;;;;;;;;27.70;74.00;;;;;;5008629;28;19921;-69
2023/09/27 11:46:40;;;;;;;;;;;27.80;72.00;;;;;;5000230;28;20616;-70
2023/09/27 11:49:08;;;;;;;;;;;27.80;72.20;;;;;;5012902;28;19920;-70
2023/09/27 11:51:35;;;;;;;;;;;27.90;72.80;;;;;;5016198;28;20002;-69
2023/09/27 11:54:01;;;;;;;;;;;28.10;72.20;;;;;;5015877;28;19913;-70
2023/09/27 11:56:26;;;;;;;;;;;28.20;71.10;;;;;;5005315;28;19925;-69
2023/09/27 11:58:52;;;;;;;;;;;28.40;70.80;;;;;;5017067;28;20784;-70
2023/09/27 12:01:19;;;;;;;;;;;28.50;70.00;;;;;;5018517;28;19909;-70
2023/09/27 12:03:45;;;;;;;;;;;28.60;69.30;;;;;;5013999;28;20269;-68
2023/09/27 12:06:11;;;;;;;;;;;28.30;68.50;;;;;;5011003;28;19996;-75
2023/09/27 12:08:36;;;;;;;;;;;28.10;69.90;;;;;;5018878;28;19917;-72
2023/09/27 12:11:03;;;;;;;;;;;28.00;70.30;;;;;;4999238;28;19974;-71
2023/09/27 12:13:28;;;;;;;;;;;28.20;70.00;;;;;;5013123;28;19921;-71
2023/09/27 12:15:54;;;;;;;;;;;27.70;70.10;;;;;;5018839;28;19913;-71
2023/09/27 12:18:20;;;;;;;;;;;27.60;70.50;;;;;;5011664;28;20003;-71
2023/09/27 12:20:46;;;;;;;;;;;27.50;70.30;;;;;;5016811;28;20344;-71
2023/09/27 12:23:13;;;;;;;;;;;27.50;71.10;;;;;;5013576;28;19916;-71
2023/09/27 12:25:38;;;;;;;;;;;27.60;71.50;;;;;;5001314;28;19952;-71
2023/09/27 12:28:04;;;;;;;;;;;27.50;69.40;;;;;;5017434;28;19913;-71
2023/09/27 12:30:30;;;;;;;;;;;27.50;69.50;;;;;;5003101;28;20004;-71
2023/09/27 12:32:56;;;;;;;;;;;27.60;70.10;;;;;;5013843;28;20154;-71
2023/09/27 12:35:21;;;;;;;;;;;27.70;70.40;;;;;;5017741;28;19956;-71
2023/09/27 12:37:48;;;;;;;;;;;27.80;70.40;;;;;;5018470;28;19917;-71
2023/09/27 12:40:13;;;;;;;;;;;27.80;70.60;;;;;;5011882;28;20368;-71
2023/09/27 12:42:39;;;;;;;;;;;27.70;69.60;;;;;;5003701;28;19955;-71
2023/09/27 12:45:08;;;;;;;;;;;27.60;70.70;;;;;;5016217;28;20398;-71
2023/09/27 12:47:33;;;;;;;;;;;27.50;70.80;;;;;;5009195;28;19921;-72
2023/09/27 12:50:02;;;;;;;;;;;27.40;71.30;;;;;;5009691;28;19909;-71
2023/09/27 12:52:27;;;;;;;;;;;27.60;71.10;;;;;;5017325;28;20008;-72
2023/09/27 12:54:53;;;;;;;;;;;27.70;71.30;;;;;;5015518;28;19998;-71
2023/09/27 12:57:18;;;;;;;;;;;27.70;71.20;;;;;;5007515;28;19910;-72
2023/09/27 12:59:44;;;;;;;;;;;27.70;71.90;;;;;;5016406;28;19936;-71
2023/09/27 13:02:09;;;;;;;;;;;27.60;71.20;;;;;;5013537;28;20588;-72
2023/09/27 13:04:35;;;;;;;;;;;27.60;71.60;;;;;;5018182;28;19963;-70
2023/09/27 13:07:00;;;;;;;;;;;27.50;71.40;;;;;;5018003;28;19917;-71
2023/09/27 13:09:26;;;;;;;;;;;27.60;71.70;;;;;;4998220;28;19921;-71
2023/09/27 13:11:52;;;;;;;;;;;27.60;72.40;;;;;;5013905;28;20463;-71
2023/09/27 13:14:17;;;;;;;;;;;27.60;71.80;;;;;;5004756;28;19914;-72
2023/09/27 13:16:43;;;;;;;;;;;27.60;72.50;;;;;;4999194;28;20082;-72
2023/09/27 13:19:11;;;;;;;;;;;27.60;72.30;;;;;;5015866;28;19921;-71
2023/09/27 13:21:36;;;;;;;;;;;27.50;72.60;;;;;;5016282;28;20253;-72
2023/09/27 13:24:02;;;;;;;;;;;27.40;73.20;;;;;;5011911;28;19913;-70
2023/09/27 13:26:28;;;;;;;;;;;27.40;73.10;;;;;;5015383;28;20305;-72
2023/09/27 13:28:54;;;;;;;;;;;27.30;73.40;;;;;;5014793;28;19931;-71
2023/09/27 13:31:20;;;;;;;;;;;27.40;74.20;;;;;;5015986;28;19917;-71
2023/09/27 13:33:45;;;;;;;;;;;27.30;74.20;;;;;;5015597;28;20484;-71
2023/09/27 13:36:11;;;;;;;;;;;27.20;74.40;;;;;;5013350;28;19920;-72
2023/09/27 13:38:37;;;;;;;;;;;27.10;74.80;;;;;;5016704;28;19997;-71
2023/09/27 13:41:02;;;;;;;;;;;27.10;74.70;;;;;;5015133;28;20398;-72
2023/09/27 13:43:28;;;;;;;;;;;27.10;75.20;;;;;;5014187;28;19920;-71
2023/09/27 13:45:54;;;;;;;;;;;27.10;74.80;;;;;;4994047;28;20348;-71
2023/09/27 13:48:20;;;;;;;;;;;27.00;74.70;;;;;;5017701;28;19909;-72
2023/09/27 13:50:46;;;;;;;;;;;26.80;74.60;;;;;;5014943;28;19913;-71
2023/09/27 13:53:12;;;;;;;;;;;26.80;75.30;;;;;;5012442;28;19920;-72
2023/09/27 13:55:37;;;;;;;;;;;26.80;74.00;;;;;;5021060;28;20012;-72
2023/09/27 13:58:03;;;;;;;;;;;26.70;73.60;;;;;;4994545;28;20259;-72
2023/09/27 14:00:30;;;;;;;;;;;26.70;74.50;;;;;;5017044;28;20013;-72
2023/09/27 14:02:55;;;;;;;;;;;26.70;74.40;;;;;;5016966;28;19913;-72
2023/09/27 14:05:21;;;;;;;;;;;26.70;74.70;;;;;;5007950;28;19913;-71
2023/09/27 14:07:46;;;;;;;;;;;26.60;74.90;;;;;;5006321;28;19956;-71
2023/09/27 14:10:12;;;;;;;;;;;26.60;74.90;;;;;;5014339;28;19913;-71
2023/09/27 14:12:43;;;;;;;;;;;26.60;74.60;;;;;;5014096;28;19943;-71
2023/09/27 14:15:10;;;;;;;;;;;26.50;74.60;;;;;;5017490;28;20329;-71